Kirkland, WA

8:19 AM PST on February 13, 2016 (GMT -0800)
West of Market | | Change Station
CLOSE
Current Station
Personal Weather Station
Location: Kirkland, WA
Elevation: 110 ft
Nearby Weather Stations

Elev 110 ft 47.69 °N, 122.21 °W | Updated 1 second ago

Overcast
Overcast
46.9 °F
Feels Like 47 °F
N
1.0
Wind Variable Wind from South
Gusts 9.0 mph

Today
High -- | Low -- °F
--% Chance of Precip.
Yesterday
High -- | Low -- °F
Precip. -- in
Pressure 30.28 in
Visibility 9.0 miles
Clouds Scattered Clouds 2600 ft
Mostly Cloudy 4200 ft
Overcast 4900 ft
Windchill 47 °F
Dew Point 43 °F
Humidity 87%
Rainfall 0.00 in
Snow Depth Not available.
7:18 AM 5:28 PM
Waxing Crescent, 32% visible
METAR KBFI 131553Z 16008KT 9SM SCT026 BKN042 OVC049 08/06 A3028 RMK AO2 RAB20E35 SLP253 P0000 T00780061
Pressure 30.28 in
Visibility 9.0 miles
Clouds Scattered Clouds 2600 ft
Mostly Cloudy 4200 ft
Overcast 4900 ft
Windchill 47 °F
Dew Point 43 °F
Humidity 87%
Rainfall 0.00 in
Snow Depth Not available.
7:18 AM 5:28 PM
Waxing Crescent, 32% visible
METAR KBFI 131553Z 16008KT 9SM SCT026 BKN042 OVC049 08/06 A3028 RMK AO2 RAB20E35 SLP253 P0000 T00780061

10-Day Weather Forecast

Almanac

Astronomy

Feb. 13, 2016 Rise Set
Actual Time
Civil Twilight
Nautical Twilight
Astronomical Twilight
Moon
Length of Visible Light
Length of Day
Tomorrow will be .
, % of the Moon is Illuminated

Today's Extremes

State Highs State Lows

Community

WunderPhotos

Upload Photos

1,892,596 photos uploaded!

WunderBlog® & News

Nearby

Air Quality

  Air Quality AQ Index Pollutant
Not available.

Snow Depth

Station Depth Elevation

Earthquake Activity

City Distance Mag. Time & Date
Minimum magnitude displayed is 2.5.

Coastal Water Temperatures

Place Temperature

Stations

Nearby Weather Stations

Station Location Temp. Windchill Dew Point Humidity Wind Precip. Elev Updated Type
                   

Watches & Warnings

There are currently no watches in effect.